createdAt,value
2022-10-31T00:02:23.166Z,100595.59
2022-10-31T00:04:49.722Z,100600.13
2022-10-31T00:07:16.250Z,100595.72
2022-10-31T00:09:42.816Z,100595.88
2022-10-31T00:12:09.348Z,100601.81
2022-10-31T00:14:35.874Z,100610.41
2022-10-31T00:17:03.203Z,100605.69
2022-10-31T00:19:29.723Z,100600.88
2022-10-31T00:21:56.262Z,100595.00
2022-10-31T00:24:22.795Z,100595.34
2022-10-31T00:26:49.394Z,100600.56
2022-10-31T00:29:15.984Z,100594.59
2022-10-31T00:31:42.515Z,100599.78
2022-10-31T00:34:09.825Z,100601.81
2022-10-31T00:36:37.431Z,100599.38
2022-10-31T00:39:04.019Z,100603.50
2022-10-31T00:41:30.846Z,100599.31
2022-10-31T00:43:57.533Z,100597.25
2022-10-31T00:46:24.093Z,100600.91
2022-10-31T00:48:51.081Z,100600.88
2022-10-31T00:51:17.823Z,100599.31
2022-10-31T00:53:44.470Z,100597.69
2022-10-31T00:56:11.084Z,100598.44
2022-10-31T00:58:37.912Z,100592.28
2022-10-31T01:01:05.780Z,100591.88
2022-10-31T01:03:33.260Z,100596.97
2022-10-31T01:06:07.798Z,100588.19
2022-10-31T01:08:37.873Z,100589.69
2022-10-31T01:11:13.772Z,100598.06
2022-10-31T01:13:41.028Z,100590.84
2022-10-31T01:16:08.337Z,100603.63
2022-10-31T01:18:34.956Z,100596.09
2022-10-31T01:21:06.093Z,100598.56
2022-10-31T01:23:33.130Z,100591.78
2022-10-31T01:26:20.550Z,100589.22
2022-10-31T01:28:57.576Z,100585.50
2022-10-31T01:31:25.649Z,100578.69
2022-10-31T01:33:52.907Z,100583.00
2022-10-31T01:36:19.658Z,100577.81
2022-10-31T01:38:47.245Z,100574.22
2022-10-31T01:41:15.016Z,100586.22
2022-10-31T01:43:45.510Z,100581.44
2022-10-31T01:46:12.490Z,100582.28
2022-10-31T01:48:42.232Z,100568.06
2022-10-31T01:51:12.517Z,100572.69
2022-10-31T01:53:39.953Z,100583.22
2022-10-31T01:56:06.990Z,100577.44
2022-10-31T01:58:33.558Z,100573.66
2022-10-31T02:01:04.832Z,100567.50
2022-10-31T02:03:34.385Z,100570.66
2022-10-31T02:06:01.027Z,100574.22
2022-10-31T02:08:31.539Z,100545.25
2022-10-31T02:10:59.198Z,100565.31
2022-10-31T02:15:54.473Z,100558.53
2022-10-31T02:18:21.821Z,100558.72
2022-10-31T02:20:52.486Z,100560.09
2022-10-31T02:23:38.198Z,100558.13
2022-10-31T02:26:13.243Z,100558.22
2022-10-31T02:28:42.901Z,100563.22
2022-10-31T02:31:24.713Z,100554.63
2022-10-31T02:34:00.187Z,100556.16
2022-10-31T02:36:33.262Z,100563.78
2022-10-31T02:39:03.072Z,100569.84
2022-10-31T02:41:44.922Z,100571.88
2022-10-31T02:44:17.940Z,100565.06
2022-10-31T02:46:44.535Z,100574.22
2022-10-31T02:49:17.562Z,100573.41
2022-10-31T02:51:44.563Z,100571.88
2022-10-31T02:54:18.685Z,100574.22
2022-10-31T02:56:45.339Z,100567.16
2022-10-31T02:59:12.004Z,100576.91
2022-10-31T03:01:48.761Z,100583.50
2022-10-31T03:04:28.543Z,100573.34
2022-10-31T03:06:55.111Z,100579.78
2022-10-31T03:09:21.740Z,100580.03
2022-10-31T03:11:58.990Z,100577.44
2022-10-31T03:14:36.131Z,100589.00
2022-10-31T03:17:06.316Z,100586.81
2022-10-31T03:19:40.232Z,100583.41
2022-10-31T03:22:22.275Z,100587.22
2022-10-31T03:24:52.082Z,100590.28
2022-10-31T03:27:23.354Z,100591.50
2022-10-31T03:29:51.555Z,100589.69
2022-10-31T03:32:21.091Z,100582.28
2022-10-31T03:34:48.470Z,100588.09
2022-10-31T03:37:17.867Z,100587.84
2022-10-31T03:39:45.464Z,100586.22
2022-10-31T03:42:14.711Z,100590.22
2022-10-31T03:44:44.250Z,100595.25
2022-10-31T03:47:11.318Z,100592.28
2022-10-31T03:49:38.234Z,100583.63
2022-10-31T03:52:14.211Z,100592.22
2022-10-31T03:54:58.151Z,100589.81
2022-10-31T03:57:46.516Z,100589.00
2022-10-31T04:00:30.984Z,100589.00
2022-10-31T04:03:16.903Z,100590.22
2022-10-31T04:06:02.385Z,100594.72
2022-10-31T04:08:47.714Z,100591.09
2022-10-31T04:11:39.462Z,100591.53
2022-10-31T04:14:45.711Z,100588.31
2022-10-31T04:17:30.065Z,100592.28
2022-10-31T04:20:12.338Z,100590.06
2022-10-31T04:22:54.949Z,100597.84
2022-10-31T04:25:36.530Z,100596.59
2022-10-31T04:31:00.929Z,100594.09
2022-10-31T04:33:43.490Z,100590.22
2022-10-31T04:36:25.029Z,100594.59
2022-10-31T04:39:08.560Z,100592.28
2022-10-31T04:41:57.610Z,100594.88
2022-10-31T04:44:39.584Z,100597.31
2022-10-31T04:47:21.215Z,100605.50
2022-10-31T04:50:03.268Z,100604.19
2022-10-31T04:52:47.149Z,100609.09
2022-10-31T04:55:32.176Z,100600.69
2022-10-31T04:58:39.674Z,100606.25
2022-10-31T05:01:23.839Z,100612.25
2022-10-31T05:04:05.467Z,100609.31
2022-10-31T05:06:47.766Z,100615.25
2022-10-31T05:09:29.336Z,100611.84
2022-10-31T05:12:10.833Z,100615.81
2022-10-31T05:15:11.184Z,100624.72
2022-10-31T05:18:27.741Z,100622.78
2022-10-31T05:21:27.779Z,100624.81
2022-10-31T05:24:13.984Z,100610.94
2022-10-31T05:27:01.328Z,100618.97
2022-10-31T05:29:42.839Z,100614.78
2022-10-31T05:32:24.406Z,100614.97
2022-10-31T05:35:29.713Z,100614.16
2022-10-31T05:38:43.561Z,100622.56
2022-10-31T05:41:45.367Z,100627.25
2022-10-31T05:44:32.737Z,100628.50
2022-10-31T05:47:34.468Z,100631.09
2022-10-31T05:50:44.960Z,100633.31
2022-10-31T05:53:26.961Z,100638.09
2022-10-31T05:56:08.586Z,100645.31
2022-10-31T05:58:51.044Z,100647.28
2022-10-31T06:01:32.649Z,100639.31
2022-10-31T06:04:20.384Z,100645.31
2022-10-31T06:07:02.301Z,100644.69
2022-10-31T06:09:47.369Z,100646.03
2022-10-31T06:12:30.864Z,100646.56
2022-10-31T06:15:28.649Z,100644.31
2022-10-31T06:18:14.559Z,100645.03
2022-10-31T06:21:02.353Z,100646.28
2022-10-31T06:23:47.971Z,100644.91
2022-10-31T06:27:58.785Z,100653.09
2022-10-31T06:30:52.068Z,100653.47
2022-10-31T06:33:37.745Z,100648.00
2022-10-31T06:36:23.721Z,100656.34
2022-10-31T06:39:11.581Z,100660.34
2022-10-31T06:41:56.908Z,100661.88
2022-10-31T06:44:42.575Z,100665.72
2022-10-31T06:48:15.670Z,100669.81
2022-10-31T06:51:01.315Z,100671.50
2022-10-31T06:53:46.442Z,100665.91
2022-10-31T06:56:34.427Z,100674.50
2022-10-31T06:59:20.546Z,100680.84
2022-10-31T07:02:24.050Z,100677.84
2022-10-31T07:05:09.655Z,100683.97
2022-10-31T07:07:58.970Z,100686.50
2022-10-31T07:10:51.755Z,100695.53
2022-10-31T07:13:37.176Z,100698.56
2022-10-31T07:16:25.936Z,100699.81
2022-10-31T07:19:10.875Z,100695.53
2022-10-31T07:21:55.944Z,100701.81
2022-10-31T07:24:43.087Z,100699.34
2022-10-31T07:27:54.556Z,100698.88
2022-10-31T07:30:40.170Z,100705.06
2022-10-31T07:33:28.392Z,100703.84
2022-10-31T07:36:33.319Z,100701.84
2022-10-31T07:39:22.706Z,100706.69
2022-10-31T07:42:08.104Z,100706.69
2022-10-31T07:44:56.833Z,100705.03
2022-10-31T07:48:03.678Z,100696.81
2022-10-31T07:51:08.030Z,100697.50
2022-10-31T07:54:31.555Z,100696.09
2022-10-31T07:57:18.337Z,100694.22
2022-10-31T08:00:06.177Z,100694.81
2022-10-31T08:03:04.969Z,100694.00
2022-10-31T08:06:08.735Z,100692.72
2022-10-31T08:09:25.890Z,100695.03
2022-10-31T08:12:11.696Z,100695.44
2022-10-31T08:14:57.072Z,100698.19
2022-10-31T08:17:42.357Z,100694.59
2022-10-31T08:20:29.543Z,100695.84
2022-10-31T08:23:15.374Z,100700.31
2022-10-31T08:26:01.649Z,100697.91
2022-10-31T08:28:47.532Z,100693.09
2022-10-31T08:31:35.789Z,100694.34
2022-10-31T08:34:42.777Z,100691.41
2022-10-31T08:37:45.750Z,100695.09
2022-10-31T08:40:31.601Z,100693.09
2022-10-31T08:43:17.941Z,100686.09
2022-10-31T08:46:03.997Z,100685.53
2022-10-31T08:48:49.533Z,100694.34
2022-10-31T08:51:36.301Z,100701.94
2022-10-31T08:54:21.939Z,100697.38
2022-10-31T08:57:12.889Z,100699.19
2022-10-31T09:00:02.151Z,100689.59
2022-10-31T09:03:04.182Z,100695.78
2022-10-31T09:05:51.889Z,100696.41
2022-10-31T09:08:37.739Z,100688.00
2022-10-31T09:11:22.932Z,100692.78
2022-10-31T09:14:46.620Z,100694.81
2022-10-31T09:17:48.856Z,100698.22
2022-10-31T09:20:49.844Z,100694.22
2022-10-31T09:23:35.800Z,100701.78
2022-10-31T09:26:21.226Z,100700.16
2022-10-31T09:29:24.709Z,100700.81
2022-10-31T09:32:15.988Z,100707.06
2022-10-31T09:35:04.897Z,100711.88
2022-10-31T09:37:54.950Z,100700.75
2022-10-31T09:40:45.096Z,100705.69
2022-10-31T09:43:40.794Z,100700.28
2022-10-31T09:46:28.612Z,100702.53
2022-10-31T09:49:33.768Z,100698.63
2022-10-31T09:52:28.940Z,100700.63
2022-10-31T09:55:20.378Z,100704.13
2022-10-31T09:58:05.797Z,100700.78
2022-10-31T10:00:51.250Z,100697.69
2022-10-31T10:03:42.273Z,100702.34
2022-10-31T10:06:50.267Z,100705.16
2022-10-31T10:09:54.082Z,100705.22
2022-10-31T10:13:17.106Z,100697.22
2022-10-31T10:16:08.642Z,100699.47
2022-10-31T10:18:56.934Z,100704.75
2022-10-31T10:22:00.669Z,100699.00
2022-10-31T10:25:01.190Z,100699.00
2022-10-31T10:27:57.568Z,100695.00
2022-10-31T10:30:45.405Z,100700.63
2022-10-31T10:33:41.243Z,100692.25
2022-10-31T10:36:35.539Z,100688.84
2022-10-31T10:39:29.131Z,100690.25
2022-10-31T10:42:33.858Z,100689.47
2022-10-31T10:45:39.125Z,100676.63
2022-10-31T10:48:29.732Z,100690.59
2022-10-31T10:51:39.007Z,100682.78
2022-10-31T10:54:47.534Z,100681.75
2022-10-31T10:57:35.325Z,100675.72
2022-10-31T11:00:24.724Z,100657.94
2022-10-31T11:03:10.638Z,100677.34
2022-10-31T11:06:01.618Z,100678.34
2022-10-31T11:08:46.993Z,100681.75
2022-10-31T11:11:32.936Z,100676.50
2022-10-31T11:14:18.614Z,100673.69
2022-10-31T11:17:12.051Z,100671.22
2022-10-31T11:20:23.729Z,100664.44
2022-10-31T11:23:19.036Z,100659.19
2022-10-31T11:26:06.123Z,100665.75
2022-10-31T11:28:58.550Z,100668.66
2022-10-31T11:31:45.128Z,100664.69
2022-10-31T11:34:32.034Z,100658.09
2022-10-31T11:37:19.928Z,100659.94
2022-10-31T11:40:06.554Z,100661.50
2022-10-31T11:42:52.904Z,100666.16
2022-10-31T11:45:39.081Z,100659.97
2022-10-31T11:48:25.339Z,100651.41
2022-10-31T11:51:10.565Z,100656.41
2022-10-31T11:54:00.150Z,100653.63
2022-10-31T11:56:48.181Z,100651.66
2022-10-31T11:59:33.606Z,100640.50
2022-10-31T12:02:20.111Z,100647.28
2022-10-31T12:05:23.968Z,100640.28
2022-10-31T12:08:11.146Z,100643.47
2022-10-31T12:11:02.248Z,100641.19
2022-10-31T12:14:06.884Z,100642.81
2022-10-31T12:16:52.572Z,100638.59
2022-10-31T12:19:37.820Z,100646.75
2022-10-31T12:22:38.193Z,100629.16
2022-10-31T12:25:42.579Z,100640.13
2022-10-31T12:28:45.406Z,100635.66
2022-10-31T12:31:37.319Z,100633.50
2022-10-31T12:34:31.564Z,100633.13
2022-10-31T12:37:21.542Z,100626.59
2022-10-31T12:40:06.546Z,100638.00
2022-10-31T12:43:10.256Z,100633.03
2022-10-31T12:45:56.379Z,100630.59
2022-10-31T12:49:00.003Z,100632.75
2022-10-31T12:51:51.339Z,100623.84
2022-10-31T12:54:36.379Z,100627.19
2022-10-31T12:57:28.952Z,100623.75
2022-10-31T13:00:17.151Z,100625.25
2022-10-31T13:03:10.526Z,100622.66
2022-10-31T13:05:58.455Z,100627.34
2022-10-31T13:08:46.454Z,100624.47
2022-10-31T13:11:34.798Z,100620.84
2022-10-31T13:14:33.704Z,100616.84
2022-10-31T13:17:35.135Z,100620.53
2022-10-31T13:20:31.168Z,100615.66
2022-10-31T13:23:49.608Z,100615.25
2022-10-31T13:26:43.040Z,100609.31
2022-10-31T13:29:32.685Z,100612.72
2022-10-31T13:32:18.494Z,100606.72
2022-10-31T13:35:04.204Z,100602.81
2022-10-31T13:37:55.018Z,100608.47
2022-10-31T13:40:51.559Z,100602.84
2022-10-31T13:43:55.438Z,100602.09
2022-10-31T13:46:44.411Z,100600.13
2022-10-31T13:49:29.776Z,100599.50
2022-10-31T13:52:24.504Z,100596.91
2022-10-31T13:55:29.438Z,100598.16
2022-10-31T13:58:23.665Z,100594.31
2022-10-31T14:01:14.706Z,100587.31
2022-10-31T14:04:12.995Z,100582.91
2022-10-31T14:07:07.093Z,100591.94
2022-10-31T14:09:51.990Z,100587.72
2022-10-31T14:12:42.866Z,100588.88
2022-10-31T14:15:28.936Z,100582.25
2022-10-31T14:18:22.383Z,100586.84
2022-10-31T14:21:25.403Z,100578.00
2022-10-31T14:24:26.035Z,100584.00
2022-10-31T14:27:20.062Z,100586.56
2022-10-31T14:30:16.963Z,100581.97
2022-10-31T14:33:14.948Z,100579.63
2022-10-31T14:36:19.964Z,100581.59
2022-10-31T14:39:25.584Z,100584.56
2022-10-31T14:42:13.373Z,100581.19
2022-10-31T14:45:10.498Z,100577.97
2022-10-31T14:48:11.335Z,100576.72
2022-10-31T14:51:00.580Z,100579.50
2022-10-31T14:54:05.790Z,100581.13
2022-10-31T14:56:54.327Z,100578.75
2022-10-31T14:59:41.397Z,100575.16
2022-10-31T15:02:39.817Z,100571.38
2022-10-31T15:05:27.986Z,100568.78
2022-10-31T15:08:31.681Z,100566.06
2022-10-31T15:11:19.509Z,100568.66
2022-10-31T15:14:18.094Z,100570.63
2022-10-31T15:17:03.805Z,100571.75
2022-10-31T15:19:49.056Z,100564.94
2022-10-31T15:22:33.956Z,100565.56
2022-10-31T15:25:23.257Z,100562.94
2022-10-31T15:28:23.532Z,100568.63
2022-10-31T15:31:17.007Z,100565.22
2022-10-31T15:34:08.078Z,100572.19
2022-10-31T15:36:53.248Z,100569.75
2022-10-31T15:39:38.258Z,100566.72
2022-10-31T15:42:25.999Z,100572.72
2022-10-31T15:45:12.061Z,100569.28
2022-10-31T15:48:02.111Z,100572.69
2022-10-31T15:50:49.624Z,100576.94
2022-10-31T15:53:37.860Z,100573.34
2022-10-31T15:56:11.421Z,100578.31
2022-10-31T15:58:46.707Z,100574.84
2022-10-31T16:01:32.921Z,100574.03
2022-10-31T16:04:08.843Z,100570.81
2022-10-31T16:06:35.766Z,100572.63
2022-10-31T16:09:02.484Z,100579.44
2022-10-31T16:11:29.047Z,100568.00
2022-10-31T16:14:00.537Z,100577.19
2022-10-31T16:16:36.273Z,100584.00
2022-10-31T16:19:04.400Z,100582.03
2022-10-31T16:21:38.145Z,100579.53
2022-10-31T16:24:16.976Z,100588.31
2022-10-31T16:26:48.761Z,100584.09
2022-10-31T16:29:44.797Z,100583.94
2022-10-31T16:32:24.922Z,100582.50
2022-10-31T16:35:09.254Z,100589.91
2022-10-31T16:37:39.099Z,100584.09
2022-10-31T16:40:05.868Z,100586.53
2022-10-31T16:42:32.524Z,100587.13
2022-10-31T16:44:59.613Z,100593.28
2022-10-31T16:47:28.534Z,100586.63
2022-10-31T16:49:55.469Z,100584.88
2022-10-31T16:52:22.248Z,100594.59
2022-10-31T16:54:50.412Z,100592.66
2022-10-31T16:57:18.528Z,100592.28
2022-10-31T16:59:47.298Z,100591.91
2022-10-31T17:02:15.792Z,100593.09
2022-10-31T17:04:42.602Z,100598.06
2022-10-31T17:07:09.185Z,100593.91
2022-10-31T17:09:35.807Z,100597.91
2022-10-31T17:12:02.517Z,100600.31
2022-10-31T17:14:29.174Z,100592.53
2022-10-31T17:16:57.966Z,100604.69
2022-10-31T17:19:24.599Z,100601.47
2022-10-31T17:21:51.767Z,100594.28
2022-10-31T17:24:18.367Z,100596.59
2022-10-31T17:26:44.974Z,100599.59
2022-10-31T17:29:11.582Z,100602.22
2022-10-31T17:31:39.436Z,100597.84
2022-10-31T17:34:06.800Z,100595.41
2022-10-31T17:36:33.987Z,100590.44
2022-10-31T17:39:00.606Z,100599.78
2022-10-31T17:41:27.323Z,100594.00
2022-10-31T17:43:57.509Z,100598.75
2022-10-31T17:46:24.090Z,100588.38
2022-10-31T17:48:50.619Z,100602.59
2022-10-31T17:51:17.147Z,100593.38
2022-10-31T17:53:43.935Z,100598.50
2022-10-31T17:56:10.813Z,100589.28
2022-10-31T17:58:37.842Z,100594.47
2022-10-31T18:01:09.012Z,100597.38
2022-10-31T18:03:35.787Z,100586.59
2022-10-31T18:06:02.397Z,100593.03
2022-10-31T18:08:29.692Z,100590.69
2022-10-31T18:10:56.742Z,100590.50
2022-10-31T18:13:23.304Z,100593.13
2022-10-31T18:15:49.872Z,100602.38
2022-10-31T18:18:16.548Z,100586.41
2022-10-31T18:20:43.668Z,100586.41
2022-10-31T18:23:10.342Z,100583.19
2022-10-31T18:25:38.951Z,100583.19
2022-10-31T18:28:06.301Z,100585.59
2022-10-31T18:30:33.038Z,100583.19
2022-10-31T18:32:59.609Z,100576.19
2022-10-31T18:35:26.146Z,100580.41
2022-10-31T18:37:52.767Z,100576.81
2022-10-31T18:40:19.360Z,100582.63
2022-10-31T18:42:45.913Z,100590.44
2022-10-31T18:45:31.275Z,100576.47
2022-10-31T18:48:00.228Z,100581.28
2022-10-31T18:50:27.007Z,100579.50
2022-10-31T18:52:53.536Z,100584.50
2022-10-31T18:55:20.154Z,100580.03
2022-10-31T18:57:46.847Z,100583.00
2022-10-31T19:00:17.864Z,100574.00
2022-10-31T19:02:44.498Z,100568.34
2022-10-31T19:05:11.016Z,100574.59
2022-10-31T19:07:37.577Z,100582.03
2022-10-31T19:10:04.743Z,100574.47
2022-10-31T19:12:32.101Z,100564.94
2022-10-31T19:14:59.360Z,100575.91
2022-10-31T19:17:25.980Z,100568.91
2022-10-31T19:19:53.826Z,100568.91
2022-10-31T19:22:20.390Z,100571.69
2022-10-31T19:24:46.978Z,100564.91
2022-10-31T19:27:13.492Z,100561.50
2022-10-31T19:29:42.236Z,100560.50
2022-10-31T19:32:09.502Z,100562.44
2022-10-31T19:34:36.129Z,100566.50
2022-10-31T19:37:02.676Z,100552.47
2022-10-31T19:39:29.556Z,100553.97
2022-10-31T19:41:56.219Z,100556.06
2022-10-31T19:44:22.845Z,100560.25
2022-10-31T19:46:53.674Z,100561.44
2022-10-31T19:49:20.571Z,100560.03
2022-10-31T19:51:48.209Z,100555.44
2022-10-31T19:54:14.846Z,100561.97
2022-10-31T19:56:41.407Z,100558.03
2022-10-31T19:59:08.170Z,100558.84
2022-10-31T20:01:34.759Z,100560.63
2022-10-31T20:04:01.459Z,100558.03
2022-10-31T20:06:32.915Z,100561.25
2022-10-31T20:09:01.040Z,100564.84
2022-10-31T20:11:28.424Z,100568.06
2022-10-31T20:13:55.688Z,100560.84
2022-10-31T20:16:22.299Z,100566.38
2022-10-31T20:18:48.967Z,100559.38
2022-10-31T20:21:26.530Z,100563.84
2022-10-31T20:24:00.595Z,100559.28
2022-10-31T20:26:27.544Z,100559.69
2022-10-31T20:28:58.052Z,100556.50
2022-10-31T20:31:28.652Z,100553.72
2022-10-31T20:34:01.574Z,100555.13
2022-10-31T20:36:29.636Z,100549.13
2022-10-31T20:38:56.552Z,100547.91
2022-10-31T20:41:23.079Z,100550.50
2022-10-31T20:43:49.779Z,100554.88
2022-10-31T20:46:18.130Z,100553.72
2022-10-31T20:48:44.682Z,100556.75
2022-10-31T20:53:43.010Z,100558.91
2022-10-31T20:56:11.309Z,100560.50
2022-10-31T20:58:38.456Z,100559.69
2022-10-31T21:01:05.851Z,100557.91
2022-10-31T21:03:32.821Z,100548.94
2022-10-31T21:06:00.210Z,100552.16
2022-10-31T21:08:27.888Z,100546.16
2022-10-31T21:10:54.922Z,100550.38
2022-10-31T21:13:21.825Z,100544.13
2022-10-31T21:15:48.576Z,100537.28
2022-10-31T21:18:15.311Z,100549.88
2022-10-31T21:20:43.821Z,100542.06
2022-10-31T21:23:11.038Z,100544.50
2022-10-31T21:25:41.939Z,100550.50
2022-10-31T21:28:14.481Z,100548.03
2022-10-31T21:31:01.068Z,100543.56
2022-10-31T21:33:27.621Z,100541.09
2022-10-31T21:35:54.144Z,100535.91
2022-10-31T21:38:20.657Z,100535.06
2022-10-31T21:40:47.177Z,100535.06
2022-10-31T21:43:13.732Z,100540.59
2022-10-31T21:45:40.273Z,100540.41
2022-10-31T21:48:06.950Z,100539.22
2022-10-31T21:50:34.302Z,100542.84
2022-10-31T21:53:20.788Z,100543.06
2022-10-31T21:55:47.336Z,100544.94
2022-10-31T21:58:13.833Z,100545.09
2022-10-31T22:00:40.451Z,100537.94
2022-10-31T22:03:06.985Z,100540.53
2022-10-31T22:05:33.961Z,100539.38
2022-10-31T22:08:00.747Z,100528.38
2022-10-31T22:10:27.609Z,100531.59
2022-10-31T22:12:54.164Z,100536.97
2022-10-31T22:15:22.875Z,100534.78
2022-10-31T22:17:49.932Z,100531.19
2022-10-31T22:20:16.552Z,100527.59
2022-10-31T22:22:43.157Z,100526.00
2022-10-31T22:25:09.779Z,100522.22
2022-10-31T22:27:38.176Z,100530.44
2022-10-31T22:30:06.249Z,100521.09
2022-10-31T22:32:32.940Z,100508.75
2022-10-31T22:35:00.265Z,100509.56
2022-10-31T22:37:26.991Z,100507.59
2022-10-31T22:39:53.627Z,100509.22
2022-10-31T22:42:21.272Z,100507.59
2022-10-31T22:44:48.066Z,100510.41
2022-10-31T22:47:15.862Z,100512.41
2022-10-31T22:49:42.429Z,100509.56
2022-10-31T22:52:09.068Z,100504.75
2022-10-31T22:54:35.588Z,100498.31
2022-10-31T22:57:02.165Z,100493.13
2022-10-31T22:59:28.887Z,100496.63
2022-10-31T23:01:55.617Z,100494.84
2022-10-31T23:04:22.404Z,100493.88
2022-10-31T23:06:49.251Z,100495.47
2022-10-31T23:09:18.918Z,100491.88
2022-10-31T23:11:45.747Z,100491.09
2022-10-31T23:14:19.516Z,100492.13
2022-10-31T23:17:17.753Z,100499.69
2022-10-31T23:19:45.244Z,100492.50
2022-10-31T23:22:12.076Z,100489.66
2022-10-31T23:24:40.194Z,100486.44
2022-10-31T23:27:09.929Z,100476.66
2022-10-31T23:29:39.413Z,100477.44
2022-10-31T23:32:07.545Z,100481.00
2022-10-31T23:34:34.172Z,100467.81
2022-10-31T23:37:00.889Z,100476.19
2022-10-31T23:39:27.609Z,100470.56
2022-10-31T23:41:54.325Z,100472.25
2022-10-31T23:44:20.961Z,100461.00
2022-10-31T23:46:47.495Z,100466.81
2022-10-31T23:49:14.034Z,100467.63
2022-10-31T23:51:40.612Z,100469.41
2022-10-31T23:54:07.572Z,100463.00
2022-10-31T23:56:34.179Z,100452.81
2022-10-31T23:59:00.808Z,100462.22
